Time;durP1;ratioP1;P1;durP2;ratioP2;P2;SDS_P1;SDS_P2;PMS_P1;PMS_P2;Temp;Humidity;BMP_temperature;BMP_pressure;BME280_temperature;BME280_humidity;BME280_pressure;Samples;Min_cycle;Max_cycle;Signal;HPM_P1;HPM_P2
2022/03/16 00:01:08;;;;;;;2.03;1.48;;;17.60;53.60;;;;;;5107217;27;45271;-75
2022/03/16 00:03:35;;;;;;;2.63;1.67;;;17.60;53.30;;;;;;5108253;27;45386;-76
2022/03/16 00:06:02;;;;;;;2.55;1.80;;;17.60;53.30;;;;;;5112670;27;45401;-75
2022/03/16 00:08:29;;;;;;;1.75;1.55;;;17.60;53.10;;;;;;5087161;28;45560;-75
2022/03/16 00:10:57;;;;;;;2.67;1.60;;;17.70;53.00;;;;;;5099623;27;45306;-75
2022/03/16 00:13:24;;;;;;;2.35;1.75;;;17.70;53.00;;;;;;5107844;27;45568;-75
2022/03/16 00:15:51;;;;;;;2.58;1.70;;;17.70;52.90;;;;;;5106907;27;45178;-75
2022/03/16 00:18:19;;;;;;;2.63;1.67;;;17.70;52.90;;;;;;5105883;27;45497;-75
2022/03/16 00:20:48;;;;;;;2.30;1.75;;;17.70;52.70;;;;;;5108213;27;45298;-76
2022/03/16 00:23:15;;;;;;;1.60;1.30;;;17.70;52.70;;;;;;5108429;27;45190;-75
2022/03/16 00:25:42;;;;;;;2.30;1.70;;;17.60;52.60;;;;;;5108282;27;45363;-75
2022/03/16 00:28:10;;;;;;;1.80;1.40;;;17.60;52.70;;;;;;5106078;27;46354;-75
2022/03/16 00:30:37;;;;;;;3.13;1.50;;;17.60;52.80;;;;;;5104492;27;45167;-75
2022/03/16 00:33:04;;;;;;;1.77;1.48;;;17.60;52.70;;;;;;5107808;27;45310;-75
2022/03/16 00:35:31;;;;;;;2.47;1.90;;;17.60;52.70;;;;;;5108262;27;45197;-75
2022/03/16 00:37:58;;;;;;;2.60;1.75;;;17.60;52.70;;;;;;5107451;27;46008;-75
2022/03/16 00:40:25;;;;;;;2.50;1.60;;;17.60;52.70;;;;;;5106691;27;45245;-75
2022/03/16 00:42:52;;;;;;;2.17;1.80;;;17.60;52.70;;;;;;5105899;27;45248;-75
2022/03/16 00:45:20;;;;;;;1.98;1.60;;;17.60;52.70;;;;;;5104014;27;45461;-75
2022/03/16 00:47:47;;;;;;;1.88;1.42;;;17.60;52.50;;;;;;5105490;27;46627;-75
2022/03/16 00:50:14;;;;;;;1.77;1.35;;;17.60;52.50;;;;;;5106739;27;45220;-75
2022/03/16 00:52:40;;;;;;;1.95;1.70;;;17.60;52.50;;;;;;5105466;27;45118;-76
2022/03/16 00:55:08;;;;;;;1.90;1.60;;;17.60;51.80;;;;;;5108095;27;45227;-75
2022/03/16 00:57:35;;;;;;;2.10;1.73;;;17.60;51.80;;;;;;5107974;27;47809;-75
2022/03/16 01:00:02;;;;;;;2.40;1.90;;;17.70;51.90;;;;;;5104845;27;45344;-75
2022/03/16 01:02:30;;;;;;;2.33;2.00;;;17.70;51.90;;;;;;5107145;27;45131;-75
2022/03/16 01:04:56;;;;;;;3.35;2.20;;;17.60;51.50;;;;;;5087424;27;45510;-75
2022/03/16 01:07:23;;;;;;;2.03;1.75;;;17.60;50.70;;;;;;5104848;27;45247;-75
2022/03/16 01:09:50;;;;;;;2.60;1.95;;;17.60;50.90;;;;;;5106127;27;45218;-75
2022/03/16 01:12:17;;;;;;;2.63;1.77;;;17.60;50.90;;;;;;5117985;27;45358;-76
2022/03/16 01:14:44;;;;;;;2.50;1.80;;;17.50;50.50;;;;;;5100758;27;45218;-75
2022/03/16 01:17:11;;;;;;;4.00;2.72;;;17.50;50.00;;;;;;5103690;27;47582;-75
2022/03/16 01:19:39;;;;;;;2.58;1.90;;;17.50;49.70;;;;;;5092196;27;45133;-75
2022/03/16 01:22:07;;;;;;;3.15;2.00;;;17.50;49.80;;;;;;5108445;27;45164;-76
2022/03/16 01:24:34;;;;;;;2.88;1.80;;;17.50;50.30;;;;;;5110813;27;45169;-76
2022/03/16 01:27:01;;;;;;;2.20;1.70;;;17.50;50.40;;;;;;5109118;27;45495;-76
2022/03/16 01:29:28;;;;;;;1.95;1.50;;;17.50;50.40;;;;;;5110366;27;45331;-75
2022/03/16 01:31:56;;;;;;;1.90;1.70;;;17.60;51.30;;;;;;5111307;27;45403;-75
2022/03/16 01:34:23;;;;;;;2.72;1.63;;;17.60;51.10;;;;;;5110157;27;45350;-75
2022/03/16 01:36:52;;;;;;;2.50;1.70;;;17.60;51.50;;;;;;5110646;27;46345;-75
2022/03/16 01:39:18;;;;;;;2.10;1.65;;;17.60;51.40;;;;;;5109441;27;45170;-75
2022/03/16 01:41:45;;;;;;;2.03;1.50;;;17.60;51.80;;;;;;5108674;27;46154;-75
2022/03/16 01:44:12;;;;;;;2.38;1.55;;;17.60;51.80;;;;;;5108141;27;45527;-74
2022/03/16 01:46:39;;;;;;;2.17;1.45;;;17.60;51.80;;;;;;5106224;27;46602;-75
2022/03/16 01:49:06;;;;;;;1.83;1.40;;;17.60;51.80;;;;;;5109478;27;45166;-75
2022/03/16 01:51:33;;;;;;;2.33;1.83;;;17.60;51.80;;;;;;5108964;27;45349;-74
2022/03/16 01:54:02;;;;;;;2.13;1.70;;;17.60;51.80;;;;;;5110155;27;45217;-75
2022/03/16 01:56:29;;;;;;;3.42;1.60;;;17.60;51.90;;;;;;5100675;27;48221;-74
2022/03/16 01:58:55;;;;;;;2.40;1.80;;;17.50;51.80;;;;;;5109210;27;45105;-74
2022/03/16 02:01:22;;;;;;;2.30;1.90;;;17.50;51.80;;;;;;5109248;27;45246;-75
2022/03/16 02:03:49;;;;;;;2.17;1.70;;;17.50;51.80;;;;;;5110603;27;45328;-75
2022/03/16 02:06:16;;;;;;;1.88;1.40;;;17.50;51.80;;;;;;5106838;27;45234;-75
2022/03/16 02:08:43;;;;;;;1.77;1.50;;;17.50;51.80;;;;;;5109317;27;45541;-75
2022/03/16 02:11:11;;;;;;;1.95;1.38;;;17.50;51.80;;;;;;5110006;27;45253;-75
2022/03/16 02:13:38;;;;;;;2.40;1.45;;;17.50;51.80;;;;;;5109961;27;45414;-75
2022/03/16 02:16:08;;;;;;;1.77;1.55;;;17.50;51.80;;;;;;5105305;27;47944;-75
2022/03/16 02:18:35;;;;;;;2.05;1.70;;;17.50;51.80;;;;;;5108244;27;45348;-75
2022/03/16 02:21:06;;;;;;;2.60;1.80;;;17.60;51.80;;;;;;5110501;27;45258;-75
2022/03/16 02:23:35;;;;;;;1.98;1.70;;;17.60;52.00;;;;;;5112948;27;45608;-75
2022/03/16 02:26:01;;;;;;;1.58;1.48;;;17.60;51.80;;;;;;5108704;27;45148;-75
2022/03/16 02:28:28;;;;;;;1.73;1.58;;;17.60;53.00;;;;;;5109033;27;45100;-75
2022/03/16 02:30:55;;;;;;;3.75;1.80;;;17.60;51.80;;;;;;5107469;27;45300;-75
2022/03/16 02:33:22;;;;;;;2.42;1.77;;;17.60;51.80;;;;;;5109100;27;45301;-75
2022/03/16 02:35:49;;;;;;;2.40;1.70;;;17.60;51.80;;;;;;5106882;27;46523;-75
2022/03/16 02:38:15;;;;;;;2.15;1.73;;;17.60;51.90;;;;;;5109068;27;45115;-75
2022/03/16 02:40:44;;;;;;;2.72;1.85;;;17.60;52.10;;;;;;5108406;27;45181;-75
2022/03/16 02:43:10;;;;;;;3.25;1.80;;;17.60;52.00;;;;;;5108902;27;45490;-75
2022/03/16 02:45:37;;;;;;;2.20;1.60;;;17.60;51.80;;;;;;5106545;27;45485;-75
2022/03/16 02:48:05;;;;;;;1.70;1.50;;;17.50;51.80;;;;;;5108653;27;45484;-75
2022/03/16 02:50:32;;;;;;;1.85;1.42;;;17.50;51.80;;;;;;5108713;27;45297;-75
2022/03/16 02:52:59;;;;;;;2.25;1.50;;;17.50;53.40;;;;;;5109573;27;45670;-75
2022/03/16 02:55:26;;;;;;;2.00;1.60;;;17.60;52.20;;;;;;5109556;27;45357;-75
2022/03/16 02:57:54;;;;;;;1.83;1.60;;;17.50;52.00;;;;;;5108054;27;45328;-75
2022/03/16 03:00:21;;;;;;;2.50;1.60;;;17.60;52.20;;;;;;5105819;27;45415;-75
2022/03/16 03:02:48;;;;;;;2.40;1.77;;;17.50;52.20;;;;;;5108767;27;45153;-75
2022/03/16 03:05:15;;;;;;;1.95;1.60;;;17.60;52.30;;;;;;5108596;27;46346;-75
2022/03/16 03:07:42;;;;;;;1.70;1.52;;;17.60;52.30;;;;;;5108561;27;45159;-75
2022/03/16 03:10:09;;;;;;;1.98;1.33;;;17.60;52.10;;;;;;5106773;27;45289;-75
2022/03/16 03:12:36;;;;;;;1.95;1.48;;;17.60;51.90;;;;;;5109399;27;45197;-75
2022/03/16 03:15:09;;;;;;;2.38;1.75;;;17.60;51.80;;;;;;5107321;27;48103;-75
2022/03/16 03:17:37;;;;;;;1.92;1.40;;;17.60;52.00;;;;;;5106808;27;45438;-75
2022/03/16 03:20:05;;;;;;;1.95;1.75;;;17.60;51.80;;;;;;5107068;27;45296;-75
2022/03/16 03:22:32;;;;;;;2.45;1.75;;;17.60;51.80;;;;;;5108245;27;45447;-75
2022/03/16 03:24:59;;;;;;;2.42;1.65;;;17.60;51.80;;;;;;5107148;27;47240;-75
2022/03/16 03:27:26;;;;;;;2.00;1.60;;;17.60;51.80;;;;;;5108635;27;45276;-75
2022/03/16 03:29:53;;;;;;;2.00;1.52;;;17.60;51.80;;;;;;5105907;27;45132;-75
2022/03/16 03:32:21;;;;;;;2.63;1.77;;;17.60;51.80;;;;;;5109012;27;45195;-75
2022/03/16 03:34:51;;;;;;;2.67;1.70;;;17.60;51.80;;;;;;5113874;27;47376;-75
2022/03/16 03:37:19;;;;;;;2.10;1.60;;;17.60;51.80;;;;;;5109168;27;45296;-75
2022/03/16 03:39:46;;;;;;;2.70;1.98;;;17.60;51.80;;;;;;5104417;27;45262;-75
2022/03/16 03:42:13;;;;;;;1.90;1.55;;;17.50;53.00;;;;;;5106927;27;45385;-75
2022/03/16 03:44:40;;;;;;;1.88;1.52;;;17.50;51.80;;;;;;5107391;27;47442;-75
2022/03/16 03:47:09;;;;;;;1.55;1.45;;;17.60;51.80;;;;;;5103749;27;45201;-75
2022/03/16 03:49:39;;;;;;;2.33;1.73;;;17.60;51.80;;;;;;5107723;27;45234;-75
2022/03/16 03:52:07;;;;;;;1.90;1.67;;;17.60;51.80;;;;;;5108775;27;45235;-75
2022/03/16 03:54:34;;;;;;;1.85;1.50;;;17.60;51.80;;;;;;5106702;27;45994;-75
2022/03/16 03:57:01;;;;;;;1.98;1.63;;;17.60;51.80;;;;;;5108257;27;45623;-75
2022/03/16 03:59:28;;;;;;;2.00;1.48;;;17.60;51.80;;;;;;5107343;27;45223;-75
2022/03/16 04:01:55;;;;;;;2.00;1.60;;;17.60;51.90;;;;;;5107724;27;45148;-75
2022/03/16 04:04:22;;;;;;;3.53;1.75;;;17.60;51.80;;;;;;5107899;27;48334;-75
2022/03/16 04:06:50;;;;;;;2.20;1.67;;;17.60;51.80;;;;;;5107238;27;45262;-75
2022/03/16 04:09:17;;;;;;;2.30;1.80;;;17.60;51.80;;;;;;5106209;27;45168;-76
2022/03/16 04:11:44;;;;;;;2.40;1.67;;;17.60;51.80;;;;;;5107280;27;45247;-76
2022/03/16 04:14:11;;;;;;;1.98;1.70;;;17.60;51.80;;;;;;5107974;27;46611;-75
2022/03/16 04:16:38;;;;;;;2.53;1.70;;;17.60;51.80;;;;;;5104028;27;45255;-75
2022/03/16 04:19:04;;;;;;;2.50;1.92;;;17.50;51.60;;;;;;5103586;27;45420;-75
2022/03/16 04:21:33;;;;;;;2.50;1.98;;;17.50;50.50;;;;;;5108798;27;45230;-75
2022/03/16 04:24:02;;;;;;;2.30;2.08;;;17.50;50.70;;;;;;5107713;27;45221;-75
2022/03/16 04:26:28;;;;;;;3.08;2.25;;;17.50;51.20;;;;;;5107080;27;45849;-75
2022/03/16 04:28:55;;;;;;;3.15;2.10;;;17.50;50.60;;;;;;5105049;27;45265;-75
2022/03/16 04:31:22;;;;;;;3.10;1.90;;;17.50;50.80;;;;;;5107672;27;45336;-75
2022/03/16 04:33:49;;;;;;;2.42;1.98;;;17.50;50.90;;;;;;5106660;27;47306;-75
2022/03/16 04:36:16;;;;;;;2.60;1.90;;;17.50;50.50;;;;;;5107753;27;45364;-76
2022/03/16 04:38:42;;;;;;;3.35;2.35;;;17.50;50.30;;;;;;5106787;27;45305;-75
2022/03/16 04:41:11;;;;;;;2.90;2.10;;;17.50;50.20;;;;;;5109493;27;45529;-75
2022/03/16 04:43:38;;;;;;;2.08;1.60;;;17.50;50.10;;;;;;5116144;27;47965;-75
2022/03/16 04:46:05;;;;;;;2.97;2.00;;;17.50;49.90;;;;;;5104831;27;45978;-75
2022/03/16 04:48:32;;;;;;;2.38;1.95;;;17.60;49.90;;;;;;5106968;27;45281;-76
2022/03/16 04:50:59;;;;;;;4.07;2.40;;;17.50;49.40;;;;;;5108005;27;45480;-75
2022/03/16 04:53:25;;;;;;;2.75;2.20;;;17.50;49.40;;;;;;5104909;27;45365;-76
2022/03/16 04:55:52;;;;;;;2.92;2.30;;;17.50;49.40;;;;;;5108509;27;45159;-76
2022/03/16 04:58:20;;;;;;;2.58;2.20;;;17.50;49.30;;;;;;5108092;27;45315;-76
2022/03/16 05:00:47;;;;;;;3.33;2.38;;;17.50;49.00;;;;;;5109896;27;45473;-75
2022/03/16 05:03:14;;;;;;;3.55;2.50;;;17.50;48.80;;;;;;5110559;27;46661;-76
2022/03/16 05:05:40;;;;;;;2.58;2.25;;;17.50;48.90;;;;;;5109134;27;45293;-76
2022/03/16 05:08:07;;;;;;;3.28;2.28;;;17.40;48.50;;;;;;5106730;27;45847;-75
2022/03/16 05:10:34;;;;;;;2.85;2.20;;;17.40;48.50;;;;;;5092726;27;45288;-75
2022/03/16 05:13:01;;;;;;;3.47;2.38;;;17.40;48.80;;;;;;5100480;27;46482;-75
2022/03/16 05:15:29;;;;;;;2.55;2.00;;;17.40;48.70;;;;;;5103645;27;45276;-75
2022/03/16 05:17:56;;;;;;;3.65;2.17;;;17.40;49.10;;;;;;5108414;27;45331;-75
2022/03/16 05:20:22;;;;;;;3.67;2.20;;;17.40;48.80;;;;;;5110434;27;45341;-75
2022/03/16 05:22:51;;;;;;;3.28;1.95;;;17.40;48.60;;;;;;5109949;27;46408;-75
2022/03/16 05:25:20;;;;;;;2.30;1.80;;;17.40;48.50;;;;;;5109235;27;45242;-76
2022/03/16 05:27:47;;;;;;;2.85;2.00;;;17.40;48.50;;;;;;5105893;27;45312;-75
2022/03/16 05:30:15;;;;;;;2.33;1.83;;;17.40;48.50;;;;;;5099957;27;45379;-75
2022/03/16 05:32:44;;;;;;;3.15;2.10;;;17.40;48.40;;;;;;5101672;27;47930;-75
2022/03/16 05:35:13;;;;;;;2.78;1.98;;;17.40;48.00;;;;;;5106874;27;45240;-75
2022/03/16 05:37:41;;;;;;;2.47;1.90;;;17.40;48.50;;;;;;5109269;27;45234;-75
2022/03/16 05:40:09;;;;;;;2.53;2.08;;;17.30;48.20;;;;;;5104624;27;45229;-75
2022/03/16 05:42:36;;;;;;;3.40;2.72;;;17.30;48.10;;;;;;5108728;27;46197;-77
2022/03/16 05:45:06;;;;;;;3.08;2.38;;;17.30;47.60;;;;;;5106320;27;45208;-76
2022/03/16 05:47:33;;;;;;;2.63;2.40;;;17.30;47.60;;;;;;5120648;27;45264;-76
2022/03/16 05:50:01;;;;;;;5.63;2.33;;;17.20;47.20;;;;;;5110334;27;45634;-76
2022/03/16 05:52:29;;;;;;;2.90;2.10;;;17.30;47.30;;;;;;5110404;27;47977;-76
2022/03/16 05:54:57;;;;;;;2.92;2.33;;;17.30;47.20;;;;;;5108195;27;46078;-76
2022/03/16 05:57:24;;;;;;;2.55;2.08;;;17.30;47.10;;;;;;5106857;27;45304;-76
2022/03/16 05:59:51;;;;;;;2.67;1.90;;;17.30;47.00;;;;;;5107314;27;45217;-76
2022/03/16 06:02:19;;;;;;;2.65;2.00;;;17.30;48.00;;;;;;5108554;27;45997;-76
2022/03/16 06:04:46;;;;;;;3.38;2.22;;;17.30;51.70;;;;;;5107034;27;45356;-76
2022/03/16 06:07:14;;;;;;;2.42;2.17;;;17.30;51.60;;;;;;5109068;27;45262;-76
2022/03/16 06:09:41;;;;;;;3.40;2.28;;;17.30;50.00;;;;;;5106142;27;45600;-75
2022/03/16 06:12:09;;;;;;;2.83;1.98;;;17.30;49.20;;;;;;5106061;27;46584;-75
2022/03/16 06:14:36;;;;;;;2.95;2.10;;;17.30;48.70;;;;;;5101977;27;45344;-75
2022/03/16 06:17:03;;;;;;;2.33;1.88;;;17.30;48.40;;;;;;5103741;27;46805;-76
2022/03/16 06:19:30;;;;;;;2.53;2.00;;;17.30;48.10;;;;;;5104990;27;45478;-76
2022/03/16 06:21:57;;;;;;;2.72;2.22;;;17.30;47.70;;;;;;5106942;27;45985;-75
2022/03/16 06:24:25;;;;;;;4.65;2.15;;;17.30;47.20;;;;;;5107885;27;45592;-75
2022/03/16 06:26:52;;;;;;;4.00;2.40;;;17.30;46.70;;;;;;5105260;27;46335;-75
2022/03/16 06:29:18;;;;;;;2.88;2.08;;;17.20;47.80;;;;;;5106371;27;45378;-75
2022/03/16 06:31:45;;;;;;;3.25;2.08;;;17.20;47.60;;;;;;5107964;27;48000;-74
2022/03/16 06:34:12;;;;;;;1.90;1.58;;;17.20;47.70;;;;;;5105697;27;45330;-74
2022/03/16 06:36:40;;;;;;;2.58;1.90;;;17.20;47.70;;;;;;5107825;27;45278;-76
2022/03/16 06:39:07;;;;;;;4.15;1.65;;;17.30;48.00;;;;;;5102135;27;45209;-76
2022/03/16 06:41:35;;;;;;;3.70;2.17;;;17.30;48.00;;;;;;5106586;27;45867;-76
2022/03/16 06:44:02;;;;;;;2.15;1.77;;;17.30;47.90;;;;;;5091879;27;45511;-75
2022/03/16 06:46:29;;;;;;;1.92;1.50;;;17.40;48.20;;;;;;5098955;27;45408;-75
2022/03/16 06:48:55;;;;;;;2.13;1.70;;;17.40;48.10;;;;;;5106670;27;45332;-75
2022/03/16 06:51:22;;;;;;;2.58;1.58;;;17.40;48.20;;;;;;5109576;27;47349;-76
2022/03/16 06:53:49;;;;;;;1.90;1.60;;;17.40;48.30;;;;;;5109588;27;45404;-75
2022/03/16 06:56:16;;;;;;;2.60;1.60;;;17.50;48.60;;;;;;5108660;27;45801;-75
2022/03/16 06:58:44;;;;;;;2.15;1.67;;;17.50;48.70;;;;;;5110711;27;45300;-76
2022/03/16 07:01:11;;;;;;;2.05;1.75;;;17.50;48.60;;;;;;5111547;27;46223;-75
2022/03/16 07:03:38;;;;;;;2.85;1.80;;;17.50;48.70;;;;;;5106111;27;45217;-76
2022/03/16 07:06:05;;;;;;;2.28;1.70;;;17.50;48.50;;;;;;5109664;27;45111;-75
2022/03/16 07:08:32;;;;;;;2.33;1.70;;;17.50;48.80;;;;;;5108614;27;45365;-75
2022/03/16 07:10:59;;;;;;;3.13;1.85;;;17.50;48.90;;;;;;5106882;27;45254;-75
2022/03/16 07:13:26;;;;;;;2.08;1.77;;;17.50;49.10;;;;;;5108099;27;45225;-76
2022/03/16 07:15:54;;;;;;;3.63;2.22;;;17.50;49.30;;;;;;5106333;27;45520;-75
2022/03/16 07:18:23;;;;;;;3.58;2.55;;;17.50;49.50;;;;;;5102931;27;45392;-75
2022/03/16 07:20:50;;;;;;;3.67;2.78;;;17.50;49.60;;;;;;5101593;27;46533;-75
2022/03/16 07:23:18;;;;;;;3.40;2.28;;;17.50;49.70;;;;;;5101659;27;45273;-75
2022/03/16 07:25:46;;;;;;;2.85;2.30;;;17.50;49.80;;;;;;5108839;27;45302;-75
2022/03/16 07:28:14;;;;;;;3.67;2.47;;;17.50;50.10;;;;;;5106979;27;45448;-76
2022/03/16 07:30:41;;;;;;;3.03;2.38;;;17.50;50.20;;;;;;5103725;27;45474;-76
2022/03/16 07:33:11;;;;;;;3.35;2.67;;;17.50;50.10;;;;;;5099799;27;45302;-76
2022/03/16 07:35:38;;;;;;;3.50;2.60;;;17.50;50.40;;;;;;5099241;27;45223;-76
2022/03/16 07:38:06;;;;;;;4.25;3.15;;;17.40;50.20;;;;;;5104646;27;45294;-76
2022/03/16 07:40:35;;;;;;;4.00;2.78;;;17.50;50.30;;;;;;5106531;27;45184;-77
2022/03/16 07:43:03;;;;;;;4.55;3.03;;;17.50;50.30;;;;;;5099224;27;45829;-76
2022/03/16 07:45:29;;;;;;;6.18;3.58;;;17.50;50.50;;;;;;5098381;27;45257;-76
2022/03/16 07:47:57;;;;;;;5.20;3.83;;;17.50;50.70;;;;;;5100441;27;45494;-74
2022/03/16 07:50:26;;;;;;;4.78;3.28;;;17.50;50.90;;;;;;5097270;27;47538;-75
2022/03/16 07:52:53;;;;;;;6.03;4.03;;;17.50;51.20;;;;;;5100561;27;45906;-75
2022/03/16 07:55:20;;;;;;;5.85;3.72;;;17.50;51.40;;;;;;5101175;27;45356;-75
2022/03/16 07:57:47;;;;;;;5.28;3.78;;;17.50;51.50;;;;;;5100384;27;45322;-74
2022/03/16 08:00:15;;;;;;;5.05;3.53;;;17.40;51.40;;;;;;5104288;27;45402;-75
2022/03/16 08:02:43;;;;;;;5.60;4.00;;;17.40;51.60;;;;;;5105246;27;45311;-75
2022/03/16 08:05:11;;;;;;;5.43;3.65;;;17.40;51.60;;;;;;5104516;27;45393;-75
2022/03/16 08:07:39;;;;;;;3.90;2.90;;;17.40;51.60;;;;;;5104504;27;45195;-75
2022/03/16 08:10:07;;;;;;;4.95;3.42;;;17.50;51.80;;;;;;5111429;27;47893;-74
2022/03/16 08:12:33;;;;;;;4.70;3.63;;;17.50;51.80;;;;;;5113766;27;45418;-75
2022/03/16 08:15:01;;;;;;;4.57;2.97;;;17.50;51.80;;;;;;5106133;27;45225;-75
2022/03/16 08:17:27;;;;;;;5.30;3.30;;;17.50;51.80;;;;;;5107176;27;45195;-75
2022/03/16 08:19:54;;;;;;;4.80;3.45;;;17.50;51.80;;;;;;5105688;27;45475;-75
2022/03/16 08:22:29;;;;;;;5.28;3.53;;;17.50;51.80;;;;;;5106459;27;45305;-75
2022/03/16 08:24:59;;;;;;;4.15;3.00;;;17.50;51.80;;;;;;5108483;27;45328;-76
2022/03/16 08:27:26;;;;;;;5.03;3.15;;;17.60;51.80;;;;;;5104060;27;45214;-75
2022/03/16 08:29:53;;;;;;;4.90;3.40;;;17.60;51.80;;;;;;5106830;27;45274;-75
2022/03/16 08:32:21;;;;;;;5.60;3.13;;;17.60;51.80;;;;;;5104734;27;45342;-75
2022/03/16 08:34:48;;;;;;;4.32;2.75;;;17.60;51.80;;;;;;5106922;27;45309;-76
2022/03/16 08:37:15;;;;;;;4.97;3.10;;;17.60;51.80;;;;;;5111934;27;45262;-75
2022/03/16 08:39:42;;;;;;;6.18;3.45;;;17.50;51.80;;;;;;5106036;27;46418;-75
2022/03/16 08:42:12;;;;;;;5.10;3.22;;;17.60;51.80;;;;;;5107614;27;45596;-75
2022/03/16 08:44:42;;;;;;;4.82;3.17;;;17.50;51.80;;;;;;5106738;27;45430;-75
2022/03/16 08:47:10;;;;;;;5.15;3.28;;;17.50;51.80;;;;;;5106902;27;45219;-75
2022/03/16 08:49:37;;;;;;;4.10;3.08;;;17.50;51.80;;;;;;5110674;27;47971;-75
2022/03/16 08:52:05;;;;;;;5.20;3.30;;;17.50;51.80;;;;;;5109888;27;45347;-76
2022/03/16 08:54:33;;;;;;;4.22;3.20;;;17.50;51.80;;;;;;5110435;27;45325;-76
2022/03/16 08:57:00;;;;;;;5.20;3.22;;;17.50;51.80;;;;;;5111884;27;45174;-75
2022/03/16 08:59:28;;;;;;;3.80;2.80;;;17.50;51.80;;;;;;5113873;27;45427;-75
2022/03/16 09:01:55;;;;;;;4.18;2.95;;;17.60;51.80;;;;;;5111795;27;45309;-75
2022/03/16 09:04:22;;;;;;;3.60;2.92;;;17.60;51.90;;;;;;5109905;27;45233;-75
2022/03/16 09:06:49;;;;;;;3.08;2.45;;;17.60;51.80;;;;;;5110312;27;45567;-75
2022/03/16 09:09:16;;;;;;;3.03;2.53;;;17.60;51.80;;;;;;5109724;27;46742;-75
2022/03/16 09:11:43;;;;;;;4.38;2.65;;;17.60;51.80;;;;;;5111572;27;45285;-75
2022/03/16 09:14:09;;;;;;;3.97;2.47;;;17.60;51.80;;;;;;5111044;27;45457;-75
2022/03/16 09:16:37;;;;;;;3.78;2.42;;;17.60;51.80;;;;;;5109795;27;45381;-75
2022/03/16 09:19:04;;;;;;;3.25;2.58;;;17.60;51.80;;;;;;5109586;27;47238;-75
2022/03/16 09:21:31;;;;;;;3.15;2.08;;;17.60;51.80;;;;;;5108319;27;45318;-75
2022/03/16 09:23:59;;;;;;;3.50;2.38;;;17.60;51.80;;;;;;5102873;27;45256;-75
2022/03/16 09:26:27;;;;;;;3.22;2.40;;;17.60;51.80;;;;;;5111006;27;45382;-75
2022/03/16 09:28:55;;;;;;;3.92;2.85;;;17.60;51.80;;;;;;5101306;27;46153;-75
2022/03/16 09:31:22;;;;;;;2.85;2.40;;;17.60;51.80;;;;;;5107985;27;45128;-75
2022/03/16 09:33:50;;;;;;;3.40;2.65;;;17.60;53.00;;;;;;5108836;27;45172;-75
2022/03/16 09:36:18;;;;;;;3.40;2.42;;;17.60;51.80;;;;;;5101875;27;45388;-75
2022/03/16 09:38:44;;;;;;;3.65;2.50;;;17.60;51.80;;;;;;5107451;27;46460;-75
2022/03/16 09:41:12;;;;;;;3.53;2.40;;;17.60;51.90;;;;;;5099621;27;45274;-76
2022/03/16 09:43:39;;;;;;;3.22;2.80;;;17.60;51.80;;;;;;5104558;27;45231;-75
2022/03/16 09:46:10;;;;;;;2.88;2.00;;;17.60;51.80;;;;;;5103824;27;45215;-76
2022/03/16 09:48:39;;;;;;;2.60;2.10;;;17.60;51.80;;;;;;5109663;27;45246;-76
2022/03/16 09:51:09;;;;;;;3.63;2.28;;;17.60;51.80;;;;;;5109884;27;45241;-75
2022/03/16 09:53:36;;;;;;;2.83;2.35;;;17.60;51.80;;;;;;5110300;27;45177;-75
2022/03/16 09:56:03;;;;;;;2.75;1.90;;;17.70;51.90;;;;;;5108225;27;45280;-75
2022/03/16 09:58:30;;;;;;;3.10;2.22;;;17.60;51.80;;;;;;5101703;27;45467;-75
2022/03/16 10:00:56;;;;;;;2.65;2.13;;;17.70;51.90;;;;;;5108111;27;45474;-75
2022/03/16 10:03:25;;;;;;;2.45;1.98;;;17.70;51.90;;;;;;5109323;27;45173;-75
2022/03/16 10:05:52;;;;;;;3.20;2.40;;;17.70;51.90;;;;;;5110755;27;45316;-76
2022/03/16 10:08:28;;;;;;;4.25;2.22;;;17.70;51.90;;;;;;5105963;27;45368;-75
2022/03/16 10:13:49;;;;;;;2.58;2.10;;;17.60;51.80;;;;;;5105418;27;45455;-75
2022/03/16 10:16:16;;;;;;;3.28;2.55;;;17.60;51.80;;;;;;5105464;27;45487;-75
2022/03/16 10:18:46;;;;;;;2.95;2.03;;;17.60;51.80;;;;;;5105670;27;46540;-75
2022/03/16 10:21:13;;;;;;;3.03;2.33;;;17.60;51.80;;;;;;5109989;27;45652;-75
2022/03/16 10:23:45;;;;;;;3.05;1.90;;;17.60;51.80;;;;;;5109932;27;45236;-75
2022/03/16 10:26:16;;;;;;;2.50;2.30;;;17.60;51.80;;;;;;5108787;27;45231;-75
2022/03/16 10:28:47;;;;;;;3.03;2.10;;;17.60;51.80;;;;;;5099555;27;46470;-75
2022/03/16 10:31:15;;;;;;;2.42;1.88;;;17.60;51.90;;;;;;5107345;27;45319;-76
2022/03/16 10:33:47;;;;;;;2.75;2.10;;;17.60;51.80;;;;;;5122448;27;45323;-76
2022/03/16 10:36:15;;;;;;;2.38;2.08;;;17.70;51.90;;;;;;5107205;27;45226;-76
2022/03/16 10:38:44;;;;;;;2.10;1.80;;;17.70;51.90;;;;;;5108625;27;45286;-76
2022/03/16 10:46:51;;;;;;;2.28;2.00;;;17.70;51.90;;;;;;5102850;27;45104;-75
2022/03/16 10:49:20;;;;;;;2.67;1.70;;;17.70;51.90;;;;;;5107254;27;46154;-75
2022/03/16 10:51:59;;;;;;;2.22;1.90;;;17.70;51.90;;;;;;5109618;27;45234;-75
2022/03/16 10:54:28;;;;;;;2.13;1.83;;;17.70;51.90;;;;;;5093541;27;45296;-75
2022/03/16 10:56:56;;;;;;;3.13;2.13;;;17.70;53.30;;;;;;5105908;27;45371;-75
2022/03/16 10:59:27;;;;;;;2.47;1.88;;;17.70;53.20;;;;;;5095913;27;45353;-75
2022/03/16 11:02:01;;;;;;;2.25;1.70;;;17.70;52.20;;;;;;5100613;27;45404;-76
2022/03/16 11:04:29;;;;;;;2.10;1.90;;;17.60;52.00;;;;;;5105854;27;45145;-76
2022/03/16 11:06:57;;;;;;;2.33;1.85;;;17.70;51.90;;;;;;5109396;27;45263;-76
2022/03/16 11:09:26;;;;;;;3.05;2.10;;;17.70;52.10;;;;;;5107637;27;46210;-76
2022/03/16 11:14:40;;;;;;;1.75;1.58;;;17.70;51.90;;;;;;5100671;27;45541;-75
2022/03/16 11:17:07;;;;;;;1.48;1.38;;;17.70;51.90;;;;;;5105110;27;45213;-75
2022/03/16 11:19:35;;;;;;;1.60;1.50;;;17.70;51.90;;;;;;5108412;27;47359;-77
2022/03/16 11:22:07;;;;;;;1.77;1.40;;;17.70;51.90;;;;;;5105651;27;45322;-76
2022/03/16 11:24:40;;;;;;;2.58;1.75;;;17.70;51.90;;;;;;5109247;27;45608;-79
2022/03/16 11:27:22;;;;;;;1.80;1.50;;;17.70;51.90;;;;;;5106830;27;45304;-76
2022/03/16 11:30:01;;;;;;;2.10;1.70;;;17.70;51.90;;;;;;5108494;27;47281;-76
2022/03/16 11:32:35;;;;;;;2.13;1.65;;;17.80;52.00;;;;;;5108061;27;45232;-76
2022/03/16 11:35:03;;;;;;;2.00;1.60;;;17.80;52.00;;;;;;5108669;27;45323;-76
2022/03/16 11:37:34;;;;;;;1.83;1.50;;;17.80;52.00;;;;;;5105927;27;45140;-76
2022/03/16 11:40:11;;;;;;;2.70;1.90;;;17.70;51.90;;;;;;5107305;27;46479;-76
2022/03/16 11:42:38;;;;;;;2.33;2.00;;;17.70;52.00;;;;;;5110660;27;45222;-76
2022/03/16 11:45:32;;;;;;;2.25;1.92;;;17.70;51.90;;;;;;5123979;27;45204;-76
2022/03/16 11:47:58;;;;;;;2.17;1.65;;;17.70;51.90;;;;;;5102879;27;45328;-76
2022/03/16 11:50:27;;;;;;;2.67;1.80;;;17.70;51.90;;;;;;5107750;27;46590;-76
2022/03/16 11:53:04;;;;;;;1.70;1.50;;;17.70;51.90;;;;;;5108764;27;45191;-76
2022/03/16 11:55:50;;;;;;;2.22;1.70;;;17.70;52.10;;;;;;5105366;27;45364;-76
2022/03/16 11:58:31;;;;;;;2.25;1.67;;;17.70;52.10;;;;;;5107227;27;45208;-76
2022/03/16 12:01:24;;;;;;;1.48;1.38;;;17.70;51.90;;;;;;5104517;27;46425;-76
2022/03/16 12:04:11;;;;;;;1.95;1.50;;;17.70;51.90;;;;;;5108728;27;45237;-76
2022/03/16 12:06:53;;;;;;;1.63;1.40;;;17.70;51.90;;;;;;5105620;27;45322;-76
2022/03/16 12:09:25;;;;;;;2.22;1.77;;;17.80;52.00;;;;;;5107045;27;45477;-76
2022/03/16 12:15:15;;;;;;;1.42;1.23;;;17.80;52.00;;;;;;5104124;27;45095;-76
2022/03/16 12:17:43;;;;;;;2.72;1.73;;;17.80;52.20;;;;;;5095558;27;45425;-76
2022/03/16 12:20:11;;;;;;;2.05;1.63;;;17.80;52.10;;;;;;5105013;27;45410;-76
2022/03/16 12:22:42;;;;;;;2.10;1.80;;;17.80;52.00;;;;;;5107089;27;47047;-76
2022/03/16 12:25:32;;;;;;;1.60;1.38;;;17.70;52.30;;;;;;5108167;27;45148;-76
2022/03/16 12:30:48;;;;;;;2.17;1.98;;;17.70;52.00;;;;;;5104631;27;45221;-76
2022/03/16 12:33:19;;;;;;;2.00;1.70;;;17.70;51.90;;;;;;5107764;27;46598;-76
2022/03/16 12:35:47;;;;;;;2.22;1.65;;;17.70;51.90;;;;;;5105684;27;46008;-76
2022/03/16 12:38:15;;;;;;;1.95;1.50;;;17.70;52.00;;;;;;5107551;27;45239;-76
2022/03/16 12:42:31;;;;;;;1.95;1.67;;;17.70;51.90;;;;;;5096297;27;45345;-75
2022/03/16 12:43:32;;;;;;;1.30;1.20;;;17.70;51.90;;;;;;5099422;27;45991;-76
2022/03/16 12:46:08;;;;;;;2.13;1.42;;;17.70;51.90;;;;;;5103435;27;45422;-76
2022/03/16 12:48:37;;;;;;;2.38;1.80;;;17.70;51.90;;;;;;5104658;27;45171;-76
2022/03/16 12:51:04;;;;;;;1.75;1.42;;;17.80;52.00;;;;;;5097962;27;45471;-76
2022/03/16 12:53:44;;;;;;;1.63;1.30;;;17.80;52.00;;;;;;5103809;27;46774;-76
2022/03/16 12:56:12;;;;;;;1.73;1.50;;;17.80;52.00;;;;;;5096685;27;45820;-76
2022/03/16 12:58:41;;;;;;;1.63;1.38;;;17.80;52.00;;;;;;5099610;27;45324;-76
2022/03/16 13:01:16;;;;;;;1.23;1.05;;;17.80;52.00;;;;;;5107277;27;45352;-76
2022/03/16 13:03:43;;;;;;;1.67;1.40;;;17.80;52.00;;;;;;5104957;27;46315;-76
2022/03/16 13:06:14;;;;;;;1.75;1.55;;;17.80;52.00;;;;;;5104784;27;45817;-76
2022/03/16 13:08:42;;;;;;;2.33;1.67;;;17.80;52.00;;;;;;5105172;27;45261;-76
2022/03/16 13:11:15;;;;;;;2.63;1.73;;;17.80;52.00;;;;;;5107898;27;45376;-76